sensor_id;sensor_type;location;lat;lon;timestamp;pressure;altitude;pressure_sealevel;temperature;humidity
32131;BME280;18639;50.716;7.086;2023-08-08T00:02:26;100401.47;;;13.79;100.00
32131;BME280;18639;50.716;7.086;2023-08-08T00:06:01;100370.31;;;13.57;100.00
32131;BME280;18639;50.716;7.086;2023-08-08T00:08:49;100314.13;;;13.23;100.00
32131;BME280;18639;50.716;7.086;2023-08-08T00:22:07;100389.31;;;13.69;100.00
32131;BME280;18639;50.716;7.086;2023-08-08T00:24:38;100322.16;;;13.31;100.00
32131;BME280;18639;50.716;7.086;2023-08-08T00:27:03;100288.16;;;13.12;100.00
32131;BME280;18639;50.716;7.086;2023-08-08T00:29:29;100385.78;;;13.70;100.00
32131;BME280;18639;50.716;7.086;2023-08-08T00:31:54;100361.56;;;13.58;100.00
32131;BME280;18639;50.716;7.086;2023-08-08T00:34:20;100363.22;;;13.59;100.00
32131;BME280;18639;50.716;7.086;2023-08-08T00:36:46;100357.22;;;13.59;100.00
32131;BME280;18639;50.716;7.086;2023-08-08T00:39:11;100340.78;;;13.47;100.00
32131;BME280;18639;50.716;7.086;2023-08-08T00:41:36;100374.56;;;13.58;100.00
32131;BME280;18639;50.716;7.086;2023-08-08T00:44:02;100351.91;;;13.49;100.00
32131;BME280;18639;50.716;7.086;2023-08-08T00:46:27;100351.19;;;13.47;100.00
32131;BME280;18639;50.716;7.086;2023-08-08T00:48:53;100355.69;;;13.45;100.00
32131;BME280;18639;50.716;7.086;2023-08-08T00:51:19;100320.97;;;13.24;100.00
32131;BME280;18639;50.716;7.086;2023-08-08T00:53:45;100349.28;;;13.38;100.00
32131;BME280;18639;50.716;7.086;2023-08-08T00:56:13;100341.88;;;13.33;100.00
32131;BME280;18639;50.716;7.086;2023-08-08T00:58:39;100348.25;;;13.40;100.00
32131;BME280;18639;50.716;7.086;2023-08-08T01:01:05;100341.03;;;13.33;100.00
32131;BME280;18639;50.716;7.086;2023-08-08T01:03:30;100359.44;;;13.41;100.00
32131;BME280;18639;50.716;7.086;2023-08-08T01:08:33;100348.25;;;13.29;100.00
32131;BME280;18639;50.716;7.086;2023-08-08T01:11:01;100360.03;;;13.33;100.00
32131;BME280;18639;50.716;7.086;2023-08-08T01:13:30;100370.31;;;13.35;100.00
32131;BME280;18639;50.716;7.086;2023-08-08T01:15:57;100341.03;;;13.22;100.00
32131;BME280;18639;50.716;7.086;2023-08-08T01:18:23;100339.84;;;13.26;100.00
32131;BME280;18639;50.716;7.086;2023-08-08T01:20:50;100354.94;;;13.32;100.00
32131;BME280;18639;50.716;7.086;2023-08-08T01:23:23;100357.34;;;13.35;100.00
32131;BME280;18639;50.716;7.086;2023-08-08T01:25:49;100345.84;;;13.26;100.00
32131;BME280;18639;50.716;7.086;2023-08-08T01:28:15;100353.44;;;13.29;100.00
32131;BME280;18639;50.716;7.086;2023-08-08T01:30:41;100352.34;;;13.32;100.00
32131;BME280;18639;50.716;7.086;2023-08-08T01:33:08;100351.66;;;13.30;100.00
32131;BME280;18639;50.716;7.086;2023-08-08T01:35:37;100348.34;;;13.28;100.00
32131;BME280;18639;50.716;7.086;2023-08-08T01:38:36;100362.03;;;13.41;100.00
32131;BME280;18639;50.716;7.086;2023-08-08T01:41:04;100356.16;;;13.39;100.00
32131;BME280;18639;50.716;7.086;2023-08-08T01:43:31;100334.66;;;13.26;100.00
32131;BME280;18639;50.716;7.086;2023-08-08T01:45:58;100343.53;;;13.34;100.00
32131;BME280;18639;50.716;7.086;2023-08-08T01:48:24;100350.22;;;13.37;100.00
32131;BME280;18639;50.716;7.086;2023-08-08T01:50:49;100330.28;;;13.26;100.00
32131;BME280;18639;50.716;7.086;2023-08-08T01:53:15;100315.78;;;13.24;100.00
32131;BME280;18639;50.716;7.086;2023-08-08T01:55:40;100321.19;;;13.21;100.00
32131;BME280;18639;50.716;7.086;2023-08-08T01:58:05;100335.25;;;13.29;100.00
32131;BME280;18639;50.716;7.086;2023-08-08T02:00:31;100318.13;;;13.16;100.00
32131;BME280;18639;50.716;7.086;2023-08-08T02:02:56;100346.47;;;13.30;100.00
32131;BME280;18639;50.716;7.086;2023-08-08T02:05:21;100349.75;;;13.32;100.00
32131;BME280;18639;50.716;7.086;2023-08-08T02:07:47;100341.59;;;13.25;100.00
32131;BME280;18639;50.716;7.086;2023-08-08T02:10:12;100335.94;;;13.20;100.00
32131;BME280;18639;50.716;7.086;2023-08-08T02:12:37;100338.53;;;13.20;100.00
32131;BME280;18639;50.716;7.086;2023-08-08T02:15:03;100298.47;;;12.89;100.00
32131;BME280;18639;50.716;7.086;2023-08-08T02:17:29;100346.22;;;13.22;100.00
32131;BME280;18639;50.716;7.086;2023-08-08T02:19:54;100343.25;;;13.15;100.00
32131;BME280;18639;50.716;7.086;2023-08-08T02:22:20;100339.59;;;13.18;100.00
32131;BME280;18639;50.716;7.086;2023-08-08T02:24:45;100325.22;;;13.14;100.00
32131;BME280;18639;50.716;7.086;2023-08-08T02:27:11;100338.66;;;13.19;100.00
32131;BME280;18639;50.716;7.086;2023-08-08T02:29:37;100339.13;;;13.13;100.00
32131;BME280;18639;50.716;7.086;2023-08-08T02:32:02;100308.41;;;12.95;100.00
32131;BME280;18639;50.716;7.086;2023-08-08T02:34:28;100333.63;;;13.04;100.00
32131;BME280;18639;50.716;7.086;2023-08-08T02:36:53;100326.78;;;13.03;100.00
32131;BME280;18639;50.716;7.086;2023-08-08T02:39:18;100311.22;;;12.92;100.00
32131;BME280;18639;50.716;7.086;2023-08-08T02:41:43;100328.94;;;13.09;100.00
32131;BME280;18639;50.716;7.086;2023-08-08T02:44:10;100310.75;;;12.98;100.00
32131;BME280;18639;50.716;7.086;2023-08-08T02:46:35;100330.34;;;13.02;100.00
32131;BME280;18639;50.716;7.086;2023-08-08T02:49:03;100313.94;;;12.91;100.00
32131;BME280;18639;50.716;7.086;2023-08-08T02:51:28;100307.19;;;12.88;100.00
32131;BME280;18639;50.716;7.086;2023-08-08T02:53:54;100315.34;;;12.95;100.00
32131;BME280;18639;50.716;7.086;2023-08-08T02:56:19;100320.63;;;12.93;100.00
32131;BME280;18639;50.716;7.086;2023-08-08T02:58:44;100301.31;;;12.86;100.00
32131;BME280;18639;50.716;7.086;2023-08-08T03:01:09;100313.94;;;12.91;100.00
32131;BME280;18639;50.716;7.086;2023-08-08T03:03:35;100288.31;;;12.75;100.00
32131;BME280;18639;50.716;7.086;2023-08-08T03:06:01;100304.59;;;12.88;100.00
32131;BME280;18639;50.716;7.086;2023-08-08T03:08:26;100316.28;;;12.94;100.00
32131;BME280;18639;50.716;7.086;2023-08-08T03:10:52;100291.59;;;12.77;100.00
32131;BME280;18639;50.716;7.086;2023-08-08T03:13:18;100285.97;;;12.83;100.00
32131;BME280;18639;50.716;7.086;2023-08-08T03:15:45;100293.41;;;12.88;100.00
32131;BME280;18639;50.716;7.086;2023-08-08T03:18:10;100280.09;;;12.81;100.00
32131;BME280;18639;50.716;7.086;2023-08-08T03:20:35;100274.44;;;12.87;100.00
32131;BME280;18639;50.716;7.086;2023-08-08T03:23:00;100266.88;;;12.84;100.00
32131;BME280;18639;50.716;7.086;2023-08-08T03:25:26;100209.06;;;12.49;100.00
32131;BME280;18639;50.716;7.086;2023-08-08T03:27:51;100268.75;;;12.82;100.00
32131;BME280;18639;50.716;7.086;2023-08-08T03:30:16;100258.63;;;12.79;100.00
32131;BME280;18639;50.716;7.086;2023-08-08T03:32:42;100276.75;;;12.79;100.00
32131;BME280;18639;50.716;7.086;2023-08-08T03:35:07;100230.28;;;12.54;100.00
32131;BME280;18639;50.716;7.086;2023-08-08T03:37:37;100189.47;;;12.34;100.00
32131;BME280;18639;50.716;7.086;2023-08-08T03:40:03;100272.06;;;12.84;100.00
32131;BME280;18639;50.716;7.086;2023-08-08T03:42:32;100227.25;;;12.60;100.00
32131;BME280;18639;50.716;7.086;2023-08-08T03:45:01;100259.44;;;12.80;100.00
32131;BME280;18639;50.716;7.086;2023-08-08T03:47:26;100265.09;;;12.85;100.00
32131;BME280;18639;50.716;7.086;2023-08-08T03:49:54;100272.66;;;12.88;100.00
32131;BME280;18639;50.716;7.086;2023-08-08T03:52:22;100252.00;;;12.75;100.00
32131;BME280;18639;50.716;7.086;2023-08-08T03:54:47;100262.63;;;12.83;100.00
32131;BME280;18639;50.716;7.086;2023-08-08T03:57:12;100236.44;;;12.64;100.00
32131;BME280;18639;50.716;7.086;2023-08-08T03:59:38;100236.66;;;12.61;100.00
32131;BME280;18639;50.716;7.086;2023-08-08T04:02:03;100259.19;;;12.83;100.00
32131;BME280;18639;50.716;7.086;2023-08-08T04:04:29;100263.06;;;12.77;100.00
32131;BME280;18639;50.716;7.086;2023-08-08T04:06:57;100265.47;;;12.80;100.00
32131;BME280;18639;50.716;7.086;2023-08-08T04:09:22;100270.66;;;12.80;100.00
32131;BME280;18639;50.716;7.086;2023-08-08T04:11:48;100269.72;;;12.81;100.00
32131;BME280;18639;50.716;7.086;2023-08-08T04:14:13;100268.06;;;12.80;100.00
32131;BME280;18639;50.716;7.086;2023-08-08T04:16:39;100282.44;;;12.84;100.00
32131;BME280;18639;50.716;7.086;2023-08-08T04:19:04;100273.94;;;12.82;100.00
32131;BME280;18639;50.716;7.086;2023-08-08T04:21:30;100275.59;;;12.83;100.00
32131;BME280;18639;50.716;7.086;2023-08-08T04:23:57;100279.59;;;12.76;100.00
32131;BME280;18639;50.716;7.086;2023-08-08T04:26:22;100286.31;;;12.79;100.00
32131;BME280;18639;50.716;7.086;2023-08-08T04:28:48;100262.47;;;12.62;100.00
32131;BME280;18639;50.716;7.086;2023-08-08T04:31:13;100238.72;;;12.45;100.00
32131;BME280;18639;50.716;7.086;2023-08-08T04:33:39;100290.91;;;12.75;100.00
32131;BME280;18639;50.716;7.086;2023-08-08T04:36:04;100289.00;;;12.77;100.00
32131;BME280;18639;50.716;7.086;2023-08-08T04:38:29;100300.34;;;12.76;100.00
32131;BME280;18639;50.716;7.086;2023-08-08T04:40:55;100263.28;;;12.63;100.00
32131;BME280;18639;50.716;7.086;2023-08-08T04:43:20;100283.81;;;12.77;100.00
32131;BME280;18639;50.716;7.086;2023-08-08T04:45:45;100283.25;;;12.85;100.00
32131;BME280;18639;50.716;7.086;2023-08-08T04:48:11;100256.72;;;12.70;100.00
32131;BME280;18639;50.716;7.086;2023-08-08T04:50:36;100277.50;;;12.81;100.00
32131;BME280;18639;50.716;7.086;2023-08-08T04:53:01;100271.34;;;12.82;100.00
32131;BME280;18639;50.716;7.086;2023-08-08T04:55:26;100258.63;;;12.79;100.00
32131;BME280;18639;50.716;7.086;2023-08-08T04:57:52;100273.25;;;12.91;100.00
32131;BME280;18639;50.716;7.086;2023-08-08T05:00:17;100283.28;;;12.96;100.00
32131;BME280;18639;50.716;7.086;2023-08-08T05:02:42;100255.22;;;12.90;100.00
32131;BME280;18639;50.716;7.086;2023-08-08T05:05:08;100277.28;;;13.06;100.00
32131;BME280;18639;50.716;7.086;2023-08-08T05:07:34;100280.13;;;13.15;100.00
32131;BME280;18639;50.716;7.086;2023-08-08T05:10:02;100247.56;;;12.99;100.00
32131;BME280;18639;50.716;7.086;2023-08-08T05:12:28;100271.41;;;13.16;100.00
32131;BME280;18639;50.716;7.086;2023-08-08T05:14:53;100261.28;;;13.13;100.00
32131;BME280;18639;50.716;7.086;2023-08-08T05:17:18;100264.47;;;13.27;100.00
32131;BME280;18639;50.716;7.086;2023-08-08T05:19:44;100268.63;;;13.30;100.00
32131;BME280;18639;50.716;7.086;2023-08-08T05:22:09;100238.53;;;13.27;100.00
32131;BME280;18639;50.716;7.086;2023-08-08T05:24:34;100228.97;;;13.17;100.00
32131;BME280;18639;50.716;7.086;2023-08-08T05:27:01;100259.84;;;13.42;100.00
32131;BME280;18639;50.716;7.086;2023-08-08T05:29:26;100257.72;;;13.36;100.00
32131;BME280;18639;50.716;7.086;2023-08-08T05:31:51;100255.59;;;13.41;100.00
32131;BME280;18639;50.716;7.086;2023-08-08T05:34:17;100260.31;;;13.47;100.00
32131;BME280;18639;50.716;7.086;2023-08-08T05:36:42;100269.28;;;13.54;100.00
32131;BME280;18639;50.716;7.086;2023-08-08T05:39:07;100268.09;;;13.58;100.00
32131;BME280;18639;50.716;7.086;2023-08-08T05:41:34;100254.75;;;13.52;100.00
32131;BME280;18639;50.716;7.086;2023-08-08T05:44:00;100258.31;;;13.62;100.00
32131;BME280;18639;50.716;7.086;2023-08-08T05:46:25;100253.13;;;13.62;100.00
32131;BME280;18639;50.716;7.086;2023-08-08T05:48:50;100238.25;;;13.53;100.00
32131;BME280;18639;50.716;7.086;2023-08-08T05:51:16;100266.66;;;13.76;100.00
32131;BME280;18639;50.716;7.086;2023-08-08T05:53:41;100239.31;;;13.61;100.00
32131;BME280;18639;50.716;7.086;2023-08-08T05:56:06;100289.53;;;13.94;100.00
32131;BME280;18639;50.716;7.086;2023-08-08T05:58:32;100254.22;;;13.91;100.00
32131;BME280;18639;50.716;7.086;2023-08-08T06:00:57;100221.38;;;13.58;100.00
32131;BME280;18639;50.716;7.086;2023-08-08T06:03:22;100246.91;;;13.85;100.00
32131;BME280;18639;50.716;7.086;2023-08-08T06:05:48;100226.13;;;13.85;100.00
32131;BME280;18639;50.716;7.086;2023-08-08T06:08:13;100288.03;;;14.23;100.00
32131;BME280;18639;50.716;7.086;2023-08-08T06:10:41;100258.53;;;14.13;100.00
32131;BME280;18639;50.716;7.086;2023-08-08T06:13:06;100293.19;;;14.34;100.00
32131;BME280;18639;50.716;7.086;2023-08-08T06:15:31;100256.00;;;14.22;100.00
32131;BME280;18639;50.716;7.086;2023-08-08T06:17:57;100282.31;;;14.40;100.00
32131;BME280;18639;50.716;7.086;2023-08-08T06:20:22;100285.38;;;14.45;100.00
32131;BME280;18639;50.716;7.086;2023-08-08T06:22:48;100281.44;;;14.51;100.00
32131;BME280;18639;50.716;7.086;2023-08-08T06:25:14;100283.16;;;14.61;100.00
32131;BME280;18639;50.716;7.086;2023-08-08T06:27:39;100269.16;;;14.73;100.00
32131;BME280;18639;50.716;7.086;2023-08-08T06:30:05;100277.19;;;14.91;100.00
32131;BME280;18639;50.716;7.086;2023-08-08T06:32:30;100275.03;;;14.96;100.00
32131;BME280;18639;50.716;7.086;2023-08-08T06:34:56;100278.97;;;15.11;100.00
32131;BME280;18639;50.716;7.086;2023-08-08T06:37:21;100263.78;;;15.16;100.00
32131;BME280;18639;50.716;7.086;2023-08-08T06:39:46;100274.97;;;15.38;100.00
32131;BME280;18639;50.716;7.086;2023-08-08T06:42:11;100236.84;;;15.27;100.00
32131;BME280;18639;50.716;7.086;2023-08-08T06:44:42;100296.34;;;15.72;100.00
32131;BME280;18639;50.716;7.086;2023-08-08T06:47:08;100289.06;;;15.66;100.00
32131;BME280;18639;50.716;7.086;2023-08-08T06:49:33;100290.16;;;15.63;100.00
32131;BME280;18639;50.716;7.086;2023-08-08T06:51:59;100272.13;;;15.50;100.00
32131;BME280;18639;50.716;7.086;2023-08-08T06:54:24;100274.78;;;15.60;100.00
32131;BME280;18639;50.716;7.086;2023-08-08T06:56:49;100298.13;;;15.71;100.00
32131;BME280;18639;50.716;7.086;2023-08-08T06:59:14;100277.84;;;15.65;100.00
32131;BME280;18639;50.716;7.086;2023-08-08T07:01:40;100288.00;;;15.87;100.00
32131;BME280;18639;50.716;7.086;2023-08-08T07:04:05;100271.00;;;15.93;100.00
32131;BME280;18639;50.716;7.086;2023-08-08T07:06:30;100299.88;;;16.20;100.00
32131;BME280;18639;50.716;7.086;2023-08-08T07:08:56;100292.34;;;16.27;100.00
32131;BME280;18639;50.716;7.086;2023-08-08T07:11:21;100233.16;;;15.89;100.00
32131;BME280;18639;50.716;7.086;2023-08-08T07:13:47;100251.28;;;16.00;100.00
32131;BME280;18639;50.716;7.086;2023-08-08T07:16:12;100254.31;;;16.15;100.00
32131;BME280;18639;50.716;7.086;2023-08-08T07:18:37;100210.69;;;16.07;100.00
32131;BME280;18639;50.716;7.086;2023-08-08T07:21:03;100237.97;;;16.41;100.00
32131;BME280;18639;50.716;7.086;2023-08-08T07:23:28;100205.41;;;16.46;100.00
32131;BME280;18639;50.716;7.086;2023-08-08T07:25:53;100259.75;;;16.98;100.00
32131;BME280;18639;50.716;7.086;2023-08-08T07:28:19;100274.63;;;17.25;100.00
32131;BME280;18639;50.716;7.086;2023-08-08T07:30:44;100244.09;;;17.25;100.00
32131;BME280;18639;50.716;7.086;2023-08-08T07:33:10;100205.91;;;17.24;100.00
32131;BME280;18639;50.716;7.086;2023-08-08T07:35:35;100243.94;;;17.64;100.00
32131;BME280;18639;50.716;7.086;2023-08-08T07:38:03;100245.50;;;17.75;99.25
32131;BME280;18639;50.716;7.086;2023-08-08T07:40:28;100248.38;;;17.81;97.27
32131;BME280;18639;50.716;7.086;2023-08-08T07:42:54;100215.28;;;17.72;91.01
32131;BME280;18639;50.716;7.086;2023-08-08T07:45:21;100269.91;;;18.11;91.99
32131;BME280;18639;50.716;7.086;2023-08-08T07:50:47;100216.59;;;18.12;94.02
32131;BME280;18639;50.716;7.086;2023-08-08T07:53:26;100167.41;;;17.89;91.56
32131;BME280;18639;50.716;7.086;2023-08-08T07:59:14;100224.25;;;18.48;87.15
32131;BME280;18639;50.716;7.086;2023-08-08T08:01:43;100212.75;;;18.59;87.14
32131;BME280;18639;50.716;7.086;2023-08-08T08:04:09;100236.38;;;18.67;81.67
32131;BME280;18639;50.716;7.086;2023-08-08T08:06:34;100244.28;;;18.75;82.80
32131;BME280;18639;50.716;7.086;2023-08-08T08:08:59;100229.50;;;18.66;80.26
32131;BME280;18639;50.716;7.086;2023-08-08T08:11:25;100222.94;;;18.62;81.63
32131;BME280;18639;50.716;7.086;2023-08-08T08:13:52;100245.25;;;19.00;90.27
32131;BME280;18639;50.716;7.086;2023-08-08T08:16:18;100275.22;;;19.31;82.71
32131;BME280;18639;50.716;7.086;2023-08-08T08:18:43;100243.56;;;19.17;78.16
32131;BME280;18639;50.716;7.086;2023-08-08T08:21:08;100238.56;;;19.40;84.79
32131;BME280;18639;50.716;7.086;2023-08-08T08:23:34;100247.38;;;19.30;75.49
32131;BME280;18639;50.716;7.086;2023-08-08T08:25:59;100266.31;;;19.50;79.61
32131;BME280;18639;50.716;7.086;2023-08-08T08:28:25;100255.53;;;19.53;77.71
32131;BME280;18639;50.716;7.086;2023-08-08T08:30:51;100261.06;;;19.50;78.94
32131;BME280;18639;50.716;7.086;2023-08-08T08:33:17;100248.00;;;19.58;75.89
32131;BME280;18639;50.716;7.086;2023-08-08T08:35:42;100201.00;;;19.23;77.18
32131;BME280;18639;50.716;7.086;2023-08-08T08:38:07;100223.06;;;19.46;83.99
32131;BME280;18639;50.716;7.086;2023-08-08T08:40:36;100258.19;;;19.69;80.32
32131;BME280;18639;50.716;7.086;2023-08-08T08:43:03;100258.50;;;19.66;80.62
32131;BME280;18639;50.716;7.086;2023-08-08T08:45:29;100243.72;;;19.57;82.87
32131;BME280;18639;50.716;7.086;2023-08-08T08:47:56;100254.25;;;19.65;82.20
32131;BME280;18639;50.716;7.086;2023-08-08T08:50:22;100264.25;;;19.70;84.68
32131;BME280;18639;50.716;7.086;2023-08-08T08:52:49;100272.28;;;19.60;81.73
32131;BME280;18639;50.716;7.086;2023-08-08T08:55:16;100242.28;;;19.29;83.72
32131;BME280;18639;50.716;7.086;2023-08-08T08:57:42;100217.00;;;19.12;86.26
32131;BME280;18639;50.716;7.086;2023-08-08T09:00:10;100215.63;;;19.00;85.90
32131;BME280;18639;50.716;7.086;2023-08-08T09:02:37;100264.88;;;19.30;86.11
32131;BME280;18639;50.716;7.086;2023-08-08T09:05:03;100255.03;;;19.24;84.28
32131;BME280;18639;50.716;7.086;2023-08-08T09:07:29;100245.25;;;19.34;84.15
32131;BME280;18639;50.716;7.086;2023-08-08T09:09:56;100241.34;;;19.38;83.18
32131;BME280;18639;50.716;7.086;2023-08-08T09:12:22;100232.50;;;19.39;83.40
32131;BME280;18639;50.716;7.086;2023-08-08T09:14:54;100238.97;;;19.53;82.95
32131;BME280;18639;50.716;7.086;2023-08-08T09:17:21;100207.03;;;19.49;80.80
32131;BME280;18639;50.716;7.086;2023-08-08T09:19:46;100250.03;;;19.81;82.24
32131;BME280;18639;50.716;7.086;2023-08-08T09:22:13;100250.03;;;19.81;80.32
32131;BME280;18639;50.716;7.086;2023-08-08T09:24:42;100262.31;;;19.80;73.86
32131;BME280;18639;50.716;7.086;2023-08-08T09:27:08;100208.38;;;19.69;75.63
32131;BME280;18639;50.716;7.086;2023-08-08T09:29:37;100242.69;;;20.00;71.34
32131;BME280;18639;50.716;7.086;2023-08-08T09:32:29;100230.22;;;19.86;68.91
32131;BME280;18639;50.716;7.086;2023-08-08T09:34:57;100187.06;;;19.64;70.83
32131;BME280;18639;50.716;7.086;2023-08-08T09:37:23;100249.44;;;20.27;72.19
32131;BME280;18639;50.716;7.086;2023-08-08T09:40:03;100243.88;;;20.46;74.80
32131;BME280;18639;50.716;7.086;2023-08-08T09:42:30;100233.38;;;20.54;72.84
32131;BME280;18639;50.716;7.086;2023-08-08T09:44:57;100206.47;;;20.36;66.75
32131;BME280;18639;50.716;7.086;2023-08-08T09:47:25;100256.84;;;20.32;66.81
32131;BME280;18639;50.716;7.086;2023-08-08T09:50:05;100244.56;;;20.40;64.76
32131;BME280;18639;50.716;7.086;2023-08-08T09:52:33;100252.56;;;20.47;66.85
32131;BME280;18639;50.716;7.086;2023-08-08T09:54:59;100262.09;;;20.48;65.64
32131;BME280;18639;50.716;7.086;2023-08-08T09:57:25;100249.81;;;20.40;65.79
32131;BME280;18639;50.716;7.086;2023-08-08T10:00:02;100231.25;;;20.42;69.30
32131;BME280;18639;50.716;7.086;2023-08-08T10:02:48;100222.22;;;20.36;65.42
32131;BME280;18639;50.716;7.086;2023-08-08T10:05:14;100270.09;;;20.79;64.51
32131;BME280;18639;50.716;7.086;2023-08-08T10:07:41;100228.91;;;20.79;65.05
32131;BME280;18639;50.716;7.086;2023-08-08T10:10:07;100270.69;;;21.21;65.85
32131;BME280;18639;50.716;7.086;2023-08-08T10:12:36;100235.56;;;21.06;60.59
32131;BME280;18639;50.716;7.086;2023-08-08T10:15:06;100265.44;;;21.05;61.13
32131;BME280;18639;50.716;7.086;2023-08-08T10:17:39;100274.50;;;20.94;58.70
32131;BME280;18639;50.716;7.086;2023-08-08T10:20:07;100243.72;;;20.48;61.05
32131;BME280;18639;50.716;7.086;2023-08-08T10:22:42;100268.50;;;20.37;62.80
32131;BME280;18639;50.716;7.086;2023-08-08T10:25:08;100262.91;;;20.48;65.81
32131;BME280;18639;50.716;7.086;2023-08-08T10:27:35;100271.78;;;20.47;67.72
32131;BME280;18639;50.716;7.086;2023-08-08T10:30:03;100252.38;;;20.08;64.02
32131;BME280;18639;50.716;7.086;2023-08-08T10:32:37;100267.13;;;20.25;64.47
32131;BME280;18639;50.716;7.086;2023-08-08T10:35:03;100252.88;;;20.11;67.15
32131;BME280;18639;50.716;7.086;2023-08-08T10:37:28;100251.06;;;20.28;64.76
32131;BME280;18639;50.716;7.086;2023-08-08T10:39:55;100274.06;;;20.58;65.46
32131;BME280;18639;50.716;7.086;2023-08-08T10:42:24;100263.72;;;20.57;64.77
32131;BME280;18639;50.716;7.086;2023-08-08T10:44:58;100259.31;;;20.49;64.04
32131;BME280;18639;50.716;7.086;2023-08-08T10:47:31;100273.41;;;20.65;64.70
32131;BME280;18639;50.716;7.086;2023-08-08T10:50:04;100274.25;;;20.49;62.54
32131;BME280;18639;50.716;7.086;2023-08-08T10:52:32;100261.56;;;20.12;61.92
32131;BME280;18639;50.716;7.086;2023-08-08T10:55:01;100241.56;;;20.03;64.34
32131;BME280;18639;50.716;7.086;2023-08-08T10:57:27;100236.91;;;19.81;66.79
32131;BME280;18639;50.716;7.086;2023-08-08T10:59:52;100272.19;;;19.94;69.59
32131;BME280;18639;50.716;7.086;2023-08-08T11:02:20;100255.44;;;19.79;66.84
32131;BME280;18639;50.716;7.086;2023-08-08T11:04:46;100228.50;;;19.61;68.04
32131;BME280;18639;50.716;7.086;2023-08-08T11:07:11;100267.75;;;19.87;69.93
32131;BME280;18639;50.716;7.086;2023-08-08T11:09:37;100270.34;;;19.79;65.86
32131;BME280;18639;50.716;7.086;2023-08-08T11:12:02;100245.28;;;19.76;66.37
32131;BME280;18639;50.716;7.086;2023-08-08T11:14:28;100246.06;;;19.76;66.92
32131;BME280;18639;50.716;7.086;2023-08-08T11:16:53;100259.56;;;19.82;66.06
32131;BME280;18639;50.716;7.086;2023-08-08T11:19:19;100236.53;;;19.67;66.74
32131;BME280;18639;50.716;7.086;2023-08-08T11:21:45;100229.66;;;19.66;67.45
32131;BME280;18639;50.716;7.086;2023-08-08T11:24:12;100236.88;;;19.64;70.08
32131;BME280;18639;50.716;7.086;2023-08-08T11:26:39;100249.66;;;19.59;68.68
32131;BME280;18639;50.716;7.086;2023-08-08T11:29:06;100251.25;;;19.52;70.64
32131;BME280;18639;50.716;7.086;2023-08-08T11:31:32;100235.91;;;19.31;71.98
32131;BME280;18639;50.716;7.086;2023-08-08T11:34:01;100230.09;;;19.12;71.29
32131;BME280;18639;50.716;7.086;2023-08-08T11:36:30;100173.75;;;18.74;74.32
32131;BME280;18639;50.716;7.086;2023-08-08T11:38:56;100190.28;;;18.74;74.69
32131;BME280;18639;50.716;7.086;2023-08-08T11:41:28;100219.53;;;18.96;76.59
32131;BME280;18639;50.716;7.086;2023-08-08T11:43:58;100244.66;;;19.14;75.12
32131;BME280;18639;50.716;7.086;2023-08-08T11:46:26;100207.41;;;18.95;73.34
32131;BME280;18639;50.716;7.086;2023-08-08T11:48:52;100195.22;;;19.11;70.32
32131;BME280;18639;50.716;7.086;2023-08-08T11:51:25;100214.13;;;19.31;66.38
32131;BME280;18639;50.716;7.086;2023-08-08T11:53:55;100164.63;;;19.12;68.56
32131;BME280;18639;50.716;7.086;2023-08-08T11:56:21;100218.63;;;19.47;69.67
32131;BME280;18639;50.716;7.086;2023-08-08T11:58:50;100206.88;;;19.25;65.44
32131;BME280;18639;50.716;7.086;2023-08-08T12:01:26;100181.94;;;19.13;67.85
32131;BME280;18639;50.716;7.086;2023-08-08T12:03:52;100228.88;;;19.40;67.66
32131;BME280;18639;50.716;7.086;2023-08-08T12:06:19;100225.63;;;19.38;67.82
32131;BME280;18639;50.716;7.086;2023-08-08T12:08:45;100220.50;;;19.28;69.32
32131;BME280;18639;50.716;7.086;2023-08-08T12:11:12;100217.06;;;19.28;68.80
32131;BME280;18639;50.716;7.086;2023-08-08T12:13:39;100226.75;;;19.35;71.07
32131;BME280;18639;50.716;7.086;2023-08-08T12:16:06;100215.38;;;19.19;72.40
32131;BME280;18639;50.716;7.086;2023-08-08T12:18:32;100215.22;;;19.12;74.70
32131;BME280;18639;50.716;7.086;2023-08-08T12:20:57;100222.59;;;19.17;75.93
32131;BME280;18639;50.716;7.086;2023-08-08T12:23:23;100211.72;;;19.04;77.71
32131;BME280;18639;50.716;7.086;2023-08-08T12:25:49;100237.28;;;19.10;76.67
32131;BME280;18639;50.716;7.086;2023-08-08T12:28:14;100232.03;;;19.10;75.47
32131;BME280;18639;50.716;7.086;2023-08-08T12:30:40;100209.44;;;19.09;78.50
32131;BME280;18639;50.716;7.086;2023-08-08T12:33:06;100195.38;;;19.10;75.09
32131;BME280;18639;50.716;7.086;2023-08-08T12:35:31;100175.66;;;18.98;75.76
32131;BME280;18639;50.716;7.086;2023-08-08T12:37:56;100223.75;;;19.22;74.48
32131;BME280;18639;50.716;7.086;2023-08-08T12:40:22;100217.34;;;19.17;75.55
32131;BME280;18639;50.716;7.086;2023-08-08T12:42:47;100198.97;;;19.09;77.63
32131;BME280;18639;50.716;7.086;2023-08-08T12:45:13;100233.56;;;19.20;76.16
32131;BME280;18639;50.716;7.086;2023-08-08T12:47:39;100200.06;;;18.98;76.20
32131;BME280;18639;50.716;7.086;2023-08-08T12:50:05;100229.06;;;19.05;77.14
32131;BME280;18639;50.716;7.086;2023-08-08T12:52:32;100231.34;;;19.00;77.11
32131;BME280;18639;50.716;7.086;2023-08-08T12:55:01;100206.97;;;18.73;75.59
32131;BME280;18639;50.716;7.086;2023-08-08T12:57:28;100217.13;;;18.76;77.70
32131;BME280;18639;50.716;7.086;2023-08-08T12:59:53;100225.84;;;18.59;78.28
32131;BME280;18639;50.716;7.086;2023-08-08T13:02:19;100239.16;;;18.48;80.91
32131;BME280;18639;50.716;7.086;2023-08-08T13:04:44;100254.41;;;18.52;78.60